Latest Weather Observations for South Channel Island

IDV60801

Issued at 9:22 pm EST Wednesday 5 August 2020 (issued every 10 minutes, with the page automatically refreshed every 10 minutes)

About weather observations | Map of weather stations | Latest weather observations for VIC | Other Formats
Station Details ID: 086344 Name: SOUTH CHANNEL ISLAND Lat: -38.31 Lon: 144.80 Height: 9.0 m
Data from the previous 72 hours. | See also: Recent months at South Channel Island
Date/Time
EST
Temp
°C
App
Temp
°C
Dew
Point
°C
Rel
Hum
%
Delta-T
°C
Wind Press
QNH
hPa
Press
MSL
hPa
Rain since
9am
mm
Dir  Spd
km/h
Gust
km/h
Spd
kts
Gust
kts
05/09:09pm - - - - - SW 35 48 19 26 - - -
05/09:00pm - - - - - SW 35 41 19 22 - - -
05/08:30pm - - - - - SSW 28 37 15 20 - - -
05/08:00pm - - - - - WSW 30 37 16 20 - - -
05/07:30pm - - - - - SW 35 44 19 24 - - -
05/07:00pm - - - - - SW 37 44 20 24 - - -
05/06:30pm - - - - - SW 37 43 20 23 - - -
05/06:00pm - - - - - SW 33 39 18 21 - - -
05/05:30pm - - - - - SW 37 44 20 24 - - -
05/05:00pm - - - - - WSW 32 43 17 23 - - -
05/04:30pm - - - - - SW 41 56 22 30 - - -
05/04:29pm - - - - - SW 39 56 21 30 - - -
05/04:00pm - - - - - WSW 30 35 16 19 - - -
05/03:52pm - - - - - SW 37 56 20 30 - - -
05/03:30pm - - - - - WSW 37 44 20 24 - - -
05/03:00pm - - - - - SW 41 54 22 29 - - -
05/02:46pm - - - - - SSW 39 52 21 28 - - -
05/02:40pm - - - - - SW 39 50 21 27 - - -
05/02:30pm - - - - - SW 37 43 20 23 - - -
05/02:00pm - - - - - SW 44 52 24 28 - - -
05/01:30pm - - - - - SW 46 59 25 32 - - -
05/01:26pm - - - - - SW 41 59 22 32 - - -
05/01:00pm - - - - - WSW 28 33 15 18 - - -
05/12:50pm - - - - - WSW 33 48 18 26 - - -
05/12:30pm - - - - - SW 37 46 20 25 - - -
05/12:00pm - - - - - SSW 35 46 19 25 - - -
05/11:30am - - - - - SSW 43 52 23 28 - - -
05/11:00am - - - - - SSW 39 50 21 27 - - -
05/10:30am - - - - - SW 35 46 19 25 - - -
05/10:00am - - - - - SSW 41 50 22 27 - - -
05/09:30am - - - - - SSW 44 54 24 29 - - -
05/09:00am - - - - - SSW 48 56 26 30 - - -
05/08:50am - - - - - SW 39 50 21 27 - - -
05/08:43am - - - - - SW 43 54 23 29 - - -
05/08:30am - - - - - SSW 48 61 26 33 - - -
05/08:00am - - - - - SSW 48 57 26 31 - - -
05/07:45am - - - - - SSW 50 69 27 37 - - -
05/07:30am - - - - - SW 44 57 24 31 - - -
05/07:00am - - - - - SW 48 59 26 32 - - -
05/06:30am - - - - - SW 52 63 28 34 - - -
05/06:00am - - - - - SW 56 67 30 36 - - -
05/05:30am - - - - - SW 57 72 31 39 - - -
05/05:00am - - - - - SW 57 72 31 39 - - -
05/04:30am - - - - - SSW 57 70 31 38 - - -
05/04:00am - - - - - SSW 59 70 32 38 - - -
05/03:30am - - - - - SSW 61 83 33 45 - - -
05/03:25am - - - - - SSW 63 83 34 45 - - -
05/03:00am - - - - - SSW 63 78 34 42 - - -
05/02:30am - - - - - SSW 65 80 35 43 - - -
05/02:04am - - - - - SSW 61 80 33 43 - - -
05/02:00am - - - - - SSW 61 72 33 39 - - -
05/01:30am - - - - - SW 59 74 32 40 - - -
05/01:00am - - - - - SW 56 74 30 40 - - -
05/12:30am - - - - - SW 54 70 29 38 - - -
05/12:10am - - - - - SW 50 69 27 37 - - -
05/12:00am - - - - - SW 54 65 29 35 - - -
 
Date/Time
EST
Temp
°C
App
Temp
°C
Dew
Point
°C
Rel
Hum
%
Delta-T
°C
Wind Press
QNH
hPa
Press
MSL
hPa
Rain since
9am
mm
Dir  Spd
km/h
Gust
km/h
Spd
kts
Gust
kts
04/11:30pm - - - - - SW 52 61 28 33 - - -
04/11:00pm - - - - - SW 52 59 28 32 - - -
04/10:30pm - - - - - SW 50 61 27 33 - - -
04/10:04pm - - - - - SSW 46 65 25 35 - - -
04/10:00pm - - - - - SSW 46 65 25 35 - - -
04/09:57pm - - - - - SSW 43 65 23 35 - - -
04/09:53pm - - - - - SSW 33 54 18 29 - - -
04/09:30pm - - - - - SSW 32 44 17 24 - - -
04/09:00pm - - - - - S 35 44 19 24 - - -
04/08:45pm - - - - - SSW 37 44 20 24 - - -
04/08:30pm - - - - - SSW 33 39 18 21 - - -
04/08:00pm - - - - - WSW 26 33 14 18 - - -
04/07:30pm - - - - - WSW 32 41 17 22 - - -
04/07:00pm - - - - - SW 33 48 18 26 - - -
04/06:41pm - - - - - WSW 50 72 27 39 - - -
04/06:30pm - - - - - SW 48 57 26 31 - - -
04/06:00pm - - - - - SW 57 70 31 38 - - -
04/05:50pm - - - - - SW 46 65 25 35 - - -
04/05:44pm - - - - - SSW 43 54 23 29 - - -
04/05:30pm - - - - - SSW 57 76 31 41 - - -
04/05:18pm - - - - - SW 52 78 28 42 - - -
04/05:14pm - - - - - SW 44 63 24 34 - - -
04/05:01pm - - - - - WSW 28 46 15 25 - - -
04/05:00pm - - - - - WSW 28 35 15 19 - - -
04/04:52pm - - - - - SW 26 33 14 18 - - -
04/04:37pm - - - - - SSW 41 59 22 32 - - -
04/04:30pm - - - - - SSW 50 59 27 32 - - -
04/04:22pm - - - - - SSW 59 85 32 46 - - -
04/04:17pm - - - - - SW 57 85 31 46 - - -
04/04:14pm - - - - - SW 50 85 27 46 - - -
04/04:12pm - - - - - WSW 44 80 24 43 - - -
04/04:09pm - - - - - SW 41 57 22 31 - - -
04/04:00pm - - - - - SSW 41 48 22 26 - - -
04/03:39pm - - - - - SW 43 67 23 36 - - -
04/03:30pm - - - - - SW 44 54 24 29 - - -
04/03:00pm - - - - - SW 56 63 30 34 - - -
04/02:30pm - - - - - WSW 50 57 27 31 - - -
04/02:19pm - - - - - SW 56 65 30 35 - - -
04/02:04pm - - - - - SSW 50 69 27 37 - - -
04/02:00pm - - - - - SSW 54 69 29 37 - - -
04/01:55pm - - - - - SW 56 69 30 37 - - -
04/01:45pm - - - - - WSW 39 54 21 29 - - -
04/01:30pm - - - - - W 35 44 19 24 - - -
04/01:22pm - - - - - W 43 52 23 28 - - -
04/01:00pm - - - - - WSW 39 57 21 31 - - -
04/12:58pm - - - - - WSW 39 57 21 31 - - -
04/12:30pm - - - - - WSW 39 54 21 29 - - -
04/12:08pm - - - - - W 52 72 28 39 - - -
04/12:03pm - - - - - W 41 72 22 39 - - -
04/12:00pm - - - - - W 33 52 18 28 - - -
04/11:30am - - - - - WSW 44 54 24 29 - - -
04/11:24am - - - - - SSW 35 52 19 28 - - -
04/11:13am - - - - - SSW 33 54 18 29 - - -
04/11:08am - - - - - SW 28 54 15 29 - - -
04/11:00am - - - - - SW 19 26 10 14 - - -
04/10:39am - - - - - WSW 35 48 19 26 - - -
04/10:34am - - - - - WSW 44 63 24 34 - - -
04/10:30am - - - - - WSW 46 63 25 34 - - -
04/10:22am - - - - - WSW 32 50 17 27 - - -
04/10:14am - - - - - SW 41 69 22 37 - - -
04/10:09am - - - - - WSW 44 69 24 37 - - -
04/10:08am - - - - - WSW 46 69 25 37 - - -
04/10:06am - - - - - W 48 69 26 37 - - -
04/10:00am - - - - - W 50 59 27 32 - - -
04/09:37am - - - - - W 46 65 25 35 - - -
04/09:30am - - - - - W 50 61 27 33 - - -
04/09:00am - - - - - WNW 54 61 29 33 - - -
04/08:31am - - - - - WNW 54 72 29 39 - - -
04/08:30am - - - - - WNW 56 72 30 39 - - -
04/08:00am - - - - - WNW 54 65 29 35 - - -
04/07:30am - - - - - WNW 46 56 25 30 - - -
04/07:00am - - - - - WNW 46 54 25 29 - - -
04/06:30am - - - - - WNW 44 52 24 28 - - -
04/06:00am - - - - - WNW 44 54 24 29 - - -
04/05:30am - - - - - WNW 44 54 24 29 - - -
04/05:00am - - - - - WNW 44 52 24 28 - - -
04/04:30am - - - - - W 41 48 22 26 - - -
04/04:00am - - - - - W 35 43 19 23 - - -
04/03:36am - - - - - WSW 50 69 27 37 - - -
04/03:30am - - - - - WSW 56 69 30 37 - - -
04/03:17am - - - - - WSW 44 63 24 34 - - -
04/03:00am - - - - - WSW 33 44 18 24 - - -
04/02:30am - - - - - SW 35 41 19 22 - - -
04/02:00am - - - - - WSW 32 39 17 21 - - -
04/01:33am - - - - - W 44 52 24 28 - - -
04/01:30am - - - - - W 46 54 25 29 - - -
04/01:00am - - - - - W 46 61 25 33 - - -
04/12:30am - - - - - WNW 44 54 24 29 - - -
04/12:00am - - - - - WNW 44 52 24 28 - - -
 
Date/Time
EST
Temp
°C
App
Temp
°C
Dew
Point
°C
Rel
Hum
%
Delta-T
°C
Wind Press
QNH
hPa
Press
MSL
hPa
Rain since
9am
mm
Dir  Spd
km/h
Gust
km/h
Spd
kts
Gust
kts
03/11:30pm - - - - - WNW 43 52 23 28 - - -
03/11:00pm - - - - - WNW 43 52 23 28 - - -
03/10:30pm - - - - - NW 39 46 21 25 - - -
03/10:00pm - - - - - NW 33 41 18 22 - - -
03/09:30pm - - - - - NW 35 41 19 22 - - -
03/09:00pm - - - - - WNW 33 39 18 21 - - -
03/08:30pm - - - - - WNW 30 33 16 18 - - -
03/08:00pm - - - - - WNW 28 32 15 17 - - -
03/07:30pm - - - - - W 28 33 15 18 - - -
03/07:00pm - - - - - W 33 41 18 22 - - -
03/06:30pm - - - - - W 35 41 19 22 - - -
03/06:00pm - - - - - W 30 33 16 18 - - -
03/05:30pm - - - - - WSW 32 37 17 20 - - -
03/05:00pm - - - - - W 33 39 18 21 - - -
03/04:30pm - - - - - WSW 32 37 17 20 - - -
03/04:00pm - - - - - NW 33 41 18 22 - - -
03/03:30pm - - - - - NW 39 44 21 24 - - -
03/03:00pm - - - - - NW 30 35 16 19 - - -
03/02:30pm - - - - - WNW 20 26 11 14 - - -
03/02:00pm - - - - - WNW 28 33 15 18 - - -
03/01:30pm - - - - - WNW 32 37 17 20 - - -
03/01:00pm - - - - - WNW 32 37 17 20 - - -
03/12:30pm - - - - - WNW 30 33 16 18 - - -
03/12:00pm - - - - - WNW 32 37 17 20 - - -
03/11:30am - - - - - WNW 26 32 14 17 - - -
03/11:00am - - - - - WNW 30 35 16 19 - - -
03/10:30am - - - - - WNW 26 28 14 15 - - -
03/10:00am - - - - - WNW 30 33 16 18 - - -
03/09:30am - - - - - NW 24 28 13 15 - - -
03/09:00am - - - - - NW 28 32 15 17 - - -
03/08:30am - - - - - NW 24 28 13 15 - - -
03/08:00am - - - - - NW 28 32 15 17 - - -
03/07:30am - - - - - WNW 30 33 16 18 - - -
03/07:00am - - - - - WNW 28 33 15 18 - - -
03/06:30am - - - - - WNW 30 32 16 17 - - -
03/06:00am - - - - - NW 26 28 14 15 - - -
03/05:30am - - - - - WNW 24 28 13 15 - - -
03/05:00am - - - - - WNW 20 26 11 14 - - -
03/04:30am - - - - - WNW 24 28 13 15 - - -
03/04:00am - - - - - WNW 19 22 10 12 - - -
03/03:30am - - - - - WNW 17 20 9 11 - - -
03/03:00am - - - - - W 15 17 8 9 - - -
03/02:30am - - - - - ESE 9 11 5 6 - - -
03/02:00am - - - - - ESE 7 9 4 5 - - -
03/01:30am - - - - - CALM 0 0 0 0 - - -
03/01:00am - - - - - ESE 9 9 5 5 - - -
03/12:30am - - - - - E 11 13 6 7 - - -
03/12:00am - - - - - E 9 9 5 5 - - -
 
Date/Time
EST
Temp
°C
App
Temp
°C
Dew
Point
°C
Rel
Hum
%
Delta-T
°C
Wind Press
QNH
hPa
Press
MSL
hPa
Rain since
9am
mm
Dir  Spd
km/h
Gust
km/h
Spd
kts
Gust
kts
02/11:30pm - - - - - E 9 9 5 5 - - -
02/11:00pm - - - - - ENE 11 13 6 7 - - -
02/10:30pm - - - - - NE 9 11 5 6 - - -
02/10:00pm - - - - - ENE 9 11 5 6 - - -
02/09:30pm - - - - - E 11 13 6 7 - - -

Other formats

Comma delimited format used in spreadsheet applications
http://www.bom.gov.au/fwo/IDV60801/IDV60801.94853.axf

JavaScript Object Notation format (JSON) in row-major order
http://www.bom.gov.au/fwo/IDV60801/IDV60801.94853.json

Data quality

Most of these data are generated automatically and are frequently updated. Quality checks on data are not normally performed. It is possible for incorrect values to appear. Refer to information at About Latest Weather Observations and please check the disclaimer before using these data.